createdAt,value
2023-05-19T00:00:31.096Z,1.08
2023-05-19T00:03:01.426Z,1.20
2023-05-19T00:05:34.335Z,1.38
2023-05-19T00:08:04.878Z,1.13
2023-05-19T00:10:35.441Z,0.90
2023-05-19T00:13:07.440Z,1.10
2023-05-19T00:15:41.961Z,1.20
2023-05-19T00:18:14.180Z,1.10
2023-05-19T00:20:46.855Z,1.20
2023-05-19T00:23:16.405Z,1.33
2023-05-19T00:25:46.476Z,1.10
2023-05-19T00:28:16.507Z,1.20
2023-05-19T00:30:44.019Z,1.15
2023-05-19T00:33:13.638Z,1.30
2023-05-19T00:35:43.353Z,1.20
2023-05-19T00:38:13.512Z,1.10
2023-05-19T00:40:43.370Z,1.33
2023-05-19T00:43:10.825Z,1.60
2023-05-19T00:45:40.651Z,1.25
2023-05-19T00:48:13.273Z,1.60
2023-05-19T00:50:41.375Z,1.40
2023-05-19T00:53:11.928Z,1.38
2023-05-19T00:55:42.776Z,1.30
2023-05-19T00:58:18.763Z,1.40
2023-05-19T01:00:49.756Z,1.17
2023-05-19T01:03:20.682Z,1.30
2023-05-19T01:05:53.836Z,1.50
2023-05-19T01:08:21.495Z,1.50
2023-05-19T01:10:50.881Z,1.30
2023-05-19T01:13:20.601Z,1.70
2023-05-19T01:15:57.861Z,1.50
2023-05-19T01:18:49.382Z,1.30
2023-05-19T01:21:28.633Z,1.30
2023-05-19T01:24:05.095Z,1.48
2023-05-19T01:27:00.832Z,1.10
2023-05-19T01:29:43.968Z,1.40
2023-05-19T01:32:14.787Z,1.40
2023-05-19T01:34:46.578Z,1.50
2023-05-19T01:37:15.186Z,1.45
2023-05-19T01:39:45.699Z,1.10
2023-05-19T01:42:14.483Z,1.25
2023-05-19T01:44:44.500Z,1.52
2023-05-19T01:47:12.923Z,1.00
2023-05-19T01:49:42.691Z,1.30
2023-05-19T01:52:12.133Z,1.23
2023-05-19T01:54:44.704Z,1.40
2023-05-19T01:57:39.267Z,1.13
2023-05-19T02:00:37.634Z,1.20
2023-05-19T02:03:13.909Z,1.60
2023-05-19T02:05:44.154Z,1.40
2023-05-19T02:08:30.311Z,1.60
2023-05-19T02:11:07.691Z,1.50
2023-05-19T02:13:40.136Z,1.38
2023-05-19T02:16:08.397Z,1.60
2023-05-19T02:18:41.981Z,1.60
2023-05-19T02:21:13.775Z,1.58
2023-05-19T02:23:43.520Z,1.40
2023-05-19T02:26:13.814Z,1.50
2023-05-19T02:28:46.465Z,1.58
2023-05-19T02:31:13.804Z,1.70
2023-05-19T02:33:41.319Z,1.30
2023-05-19T02:36:14.499Z,1.65
2023-05-19T02:38:47.543Z,1.52
2023-05-19T02:41:18.817Z,1.50
2023-05-19T02:43:46.326Z,1.50
2023-05-19T02:46:13.670Z,1.60
2023-05-19T02:48:43.392Z,1.58
2023-05-19T02:51:10.713Z,1.45
2023-05-19T02:53:42.725Z,1.70
2023-05-19T02:56:15.468Z,1.70
2023-05-19T02:58:46.112Z,1.60
2023-05-19T03:01:14.381Z,1.45
2023-05-19T03:03:41.749Z,1.63
2023-05-19T03:06:15.627Z,1.80
2023-05-19T03:08:45.475Z,1.50
2023-05-19T03:11:16.011Z,1.70
2023-05-19T03:13:45.822Z,1.70
2023-05-19T03:16:14.110Z,1.83
2023-05-19T03:18:47.361Z,1.80
2023-05-19T03:21:14.710Z,1.70
2023-05-19T03:23:45.468Z,1.40
2023-05-19T03:26:15.366Z,1.88
2023-05-19T03:28:45.346Z,1.63
2023-05-19T03:31:17.822Z,1.92
2023-05-19T03:33:48.150Z,1.80
2023-05-19T03:36:18.569Z,1.50
2023-05-19T03:38:51.127Z,1.85
2023-05-19T03:41:21.352Z,1.77
2023-05-19T03:43:50.936Z,1.83
2023-05-19T03:46:21.161Z,1.80
2023-05-19T03:48:53.532Z,1.73
2023-05-19T03:51:43.272Z,1.80
2023-05-19T03:54:30.129Z,1.67
2023-05-19T03:57:04.831Z,1.70
2023-05-19T03:59:37.616Z,1.60
2023-05-19T04:02:16.977Z,1.70
2023-05-19T04:04:44.623Z,1.45
2023-05-19T04:07:14.360Z,1.77
2023-05-19T04:09:50.639Z,1.70
2023-05-19T04:12:18.087Z,1.70
2023-05-19T04:14:49.137Z,2.00
2023-05-19T04:17:23.738Z,1.95
2023-05-19T04:19:53.463Z,1.83
2023-05-19T04:22:27.902Z,1.83
2023-05-19T04:24:58.326Z,1.92
2023-05-19T04:27:27.821Z,1.63
2023-05-19T04:29:58.229Z,1.90
2023-05-19T04:32:25.702Z,1.73
2023-05-19T04:34:58.916Z,1.70
2023-05-19T04:37:29.935Z,1.80
2023-05-19T04:40:00.859Z,1.80
2023-05-19T04:42:33.089Z,2.03
2023-05-19T04:45:03.643Z,2.13
2023-05-19T04:47:36.876Z,1.80
2023-05-19T04:50:05.362Z,1.88
2023-05-19T04:52:35.005Z,1.58
2023-05-19T04:55:04.561Z,2.10
2023-05-19T04:57:32.422Z,2.20
2023-05-19T05:00:00.474Z,1.85
2023-05-19T05:02:37.207Z,1.88
2023-05-19T05:05:07.965Z,1.85
2023-05-19T05:07:35.307Z,1.80
2023-05-19T05:10:09.320Z,1.70
2023-05-19T05:12:42.536Z,2.00
2023-05-19T05:15:11.227Z,1.92
2023-05-19T05:17:39.064Z,1.70
2023-05-19T05:20:11.517Z,2.00
2023-05-19T05:22:39.273Z,2.00
2023-05-19T05:25:12.600Z,2.20
2023-05-19T05:27:43.458Z,1.90
2023-05-19T05:30:16.965Z,1.90
2023-05-19T05:32:47.008Z,1.90
2023-05-19T05:35:32.568Z,1.83
2023-05-19T05:38:03.231Z,2.20
2023-05-19T05:40:35.602Z,1.73
2023-05-19T05:43:07.592Z,1.90
2023-05-19T05:45:45.550Z,1.90
2023-05-19T05:48:16.272Z,1.95
2023-05-19T05:50:48.663Z,2.00
2023-05-19T05:53:24.920Z,2.10
2023-05-19T05:55:57.776Z,2.00
2023-05-19T05:58:29.091Z,1.90
2023-05-19T06:00:58.068Z,2.10
2023-05-19T06:03:28.669Z,2.00
2023-05-19T06:06:00.031Z,2.05
2023-05-19T06:08:28.078Z,2.10
2023-05-19T06:10:58.881Z,2.00
2023-05-19T06:13:31.482Z,2.00
2023-05-19T06:16:01.718Z,2.03
2023-05-19T06:18:39.458Z,2.35
2023-05-19T06:21:10.484Z,2.00
2023-05-19T06:23:41.332Z,1.95
2023-05-19T06:26:13.690Z,2.10
2023-05-19T06:28:45.252Z,2.08
2023-05-19T06:31:15.201Z,2.10
2023-05-19T06:33:51.405Z,1.77
2023-05-19T06:36:19.661Z,1.85
2023-05-19T06:38:47.903Z,1.92
2023-05-19T06:41:15.787Z,1.95
2023-05-19T06:43:45.981Z,1.98
2023-05-19T06:46:18.093Z,1.73
2023-05-19T06:48:48.986Z,2.13
2023-05-19T06:51:24.570Z,1.90
2023-05-19T06:53:56.511Z,1.90
2023-05-19T06:56:29.046Z,2.10
2023-05-19T06:59:04.759Z,1.90
2023-05-19T07:01:42.560Z,1.85
2023-05-19T07:04:11.012Z,1.83
2023-05-19T07:06:41.792Z,1.98
2023-05-19T07:09:15.352Z,2.00
2023-05-19T07:11:49.423Z,2.00
2023-05-19T07:14:22.906Z,2.00
2023-05-19T07:16:56.685Z,2.13
2023-05-19T07:19:32.159Z,2.03
2023-05-19T07:21:59.876Z,2.00
2023-05-19T07:24:32.721Z,1.80
2023-05-19T07:27:05.653Z,2.03
2023-05-19T07:29:35.564Z,2.00
2023-05-19T07:32:03.279Z,1.83
2023-05-19T07:34:31.028Z,1.58
2023-05-19T07:36:59.680Z,1.90
2023-05-19T07:39:29.835Z,1.88
2023-05-19T07:41:57.870Z,1.85
2023-05-19T07:44:27.301Z,1.55
2023-05-19T07:46:55.320Z,1.98
2023-05-19T07:49:23.661Z,1.60
2023-05-19T07:51:52.800Z,1.70
2023-05-19T07:54:21.440Z,1.60
2023-05-19T07:56:49.312Z,1.58
2023-05-19T07:59:17.075Z,1.90
2023-05-19T08:01:44.778Z,1.75
2023-05-19T08:04:14.590Z,1.83
2023-05-19T08:06:44.524Z,1.92
2023-05-19T08:09:12.392Z,1.80
2023-05-19T08:11:40.167Z,2.15
2023-05-19T08:14:10.961Z,2.03
2023-05-19T08:16:39.365Z,1.70
2023-05-19T08:19:07.561Z,1.83
2023-05-19T08:21:36.676Z,1.60
2023-05-19T08:24:04.470Z,1.63
2023-05-19T08:26:32.042Z,2.28
2023-05-19T08:28:59.888Z,1.63
2023-05-19T08:31:27.782Z,1.50
2023-05-19T08:33:55.302Z,1.70
2023-05-19T08:36:23.403Z,1.83
2023-05-19T08:38:51.028Z,1.90
2023-05-19T08:41:19.028Z,1.75
2023-05-19T08:43:47.178Z,1.67
2023-05-19T08:46:18.537Z,1.95
2023-05-19T08:48:53.852Z,1.60
2023-05-19T08:51:51.158Z,1.80
2023-05-19T08:54:20.922Z,2.08
2023-05-19T08:56:48.846Z,1.50
2023-05-19T08:59:21.804Z,1.90
2023-05-19T09:01:50.833Z,2.10
2023-05-19T09:04:19.141Z,2.03
2023-05-19T09:06:50.471Z,1.45
2023-05-19T09:09:20.908Z,1.77
2023-05-19T09:11:48.927Z,1.88
2023-05-19T09:14:16.863Z,1.73
2023-05-19T09:16:48.310Z,1.65
2023-05-19T09:19:20.845Z,1.65
2023-05-19T09:22:01.293Z,1.70
2023-05-19T09:24:29.897Z,1.48
2023-05-19T09:27:02.383Z,1.70
2023-05-19T09:29:30.139Z,1.73
2023-05-19T09:32:01.771Z,1.65
2023-05-19T09:34:31.900Z,1.88
2023-05-19T09:37:05.279Z,1.60
2023-05-19T09:39:35.664Z,1.70
2023-05-19T09:42:05.424Z,1.77
2023-05-19T09:44:38.489Z,1.58
2023-05-19T09:47:08.759Z,1.60
2023-05-19T09:49:48.886Z,1.75
2023-05-19T09:52:16.603Z,1.70
2023-05-19T09:54:51.811Z,1.33
2023-05-19T09:57:27.273Z,1.40
2023-05-19T10:00:00.344Z,1.30
2023-05-19T10:02:32.264Z,1.48
2023-05-19T10:05:01.479Z,1.92
2023-05-19T10:07:35.127Z,1.50
2023-05-19T10:12:41.467Z,1.70
2023-05-19T10:15:11.579Z,1.63
2023-05-19T10:17:42.527Z,1.42
2023-05-19T10:20:14.953Z,1.33
2023-05-19T10:22:47.139Z,1.80
2023-05-19T10:25:16.964Z,1.55
2023-05-19T10:27:57.690Z,1.70
2023-05-19T10:30:56.276Z,1.42
2023-05-19T10:33:42.398Z,1.42
2023-05-19T10:36:21.991Z,1.40
2023-05-19T10:39:16.743Z,1.73
2023-05-19T10:41:54.367Z,1.67
2023-05-19T10:44:58.121Z,1.50
2023-05-19T10:47:30.027Z,1.50
2023-05-19T10:50:06.981Z,1.70
2023-05-19T10:52:44.760Z,1.70
2023-05-19T10:55:17.827Z,1.50
2023-05-19T10:57:56.940Z,1.42
2023-05-19T11:00:33.565Z,1.33
2023-05-19T11:03:24.491Z,1.60
2023-05-19T11:06:14.542Z,1.42
2023-05-19T11:08:45.091Z,1.90
2023-05-19T11:11:17.146Z,1.50
2023-05-19T11:13:57.831Z,1.70
2023-05-19T11:16:34.735Z,1.60
2023-05-19T11:19:02.662Z,1.70
2023-05-19T11:21:43.694Z,1.60
2023-05-19T11:24:31.695Z,1.60
2023-05-19T11:27:20.407Z,1.70
2023-05-19T11:29:48.790Z,1.50
2023-05-19T11:32:26.425Z,1.60
2023-05-19T11:34:58.343Z,1.50
2023-05-19T11:37:29.187Z,1.60
2023-05-19T11:40:07.472Z,1.67
2023-05-19T11:42:37.197Z,1.77
2023-05-19T11:45:05.677Z,1.55
2023-05-19T11:47:42.613Z,1.50
2023-05-19T11:50:21.750Z,1.80
2023-05-19T11:52:50.751Z,1.40
2023-05-19T11:55:19.360Z,1.60
2023-05-19T11:58:03.855Z,1.40
2023-05-19T12:00:40.324Z,1.20
2023-05-19T12:03:14.365Z,1.20
2023-05-19T12:05:48.961Z,1.20
2023-05-19T12:08:21.835Z,1.50
2023-05-19T12:10:52.412Z,1.27
2023-05-19T12:13:22.962Z,1.63
2023-05-19T12:16:02.074Z,1.30
2023-05-19T12:18:40.443Z,1.55
2023-05-19T12:21:11.441Z,1.35
2023-05-19T12:23:41.664Z,1.48
2023-05-19T12:26:10.746Z,1.40
2023-05-19T12:28:42.223Z,1.33
2023-05-19T12:31:15.821Z,1.50
2023-05-19T12:33:48.712Z,1.38
2023-05-19T12:36:19.564Z,1.13
2023-05-19T12:38:47.915Z,1.50
2023-05-19T12:41:15.690Z,1.27
2023-05-19T12:43:45.636Z,1.40
2023-05-19T12:46:19.200Z,1.58
2023-05-19T12:48:50.193Z,1.25
2023-05-19T12:51:19.255Z,1.40
2023-05-19T12:53:49.896Z,1.45
2023-05-19T12:56:20.345Z,1.60
2023-05-19T12:58:54.783Z,1.42
2023-05-19T13:01:26.565Z,1.40
2023-05-19T13:04:02.141Z,1.55
2023-05-19T13:06:32.949Z,1.30
2023-05-19T13:09:05.329Z,1.50
2023-05-19T13:11:36.370Z,1.30
2023-05-19T13:14:09.276Z,1.42
2023-05-19T13:16:40.114Z,1.50
2023-05-19T13:19:24.801Z,1.48
2023-05-19T13:21:56.068Z,1.38
2023-05-19T13:24:23.674Z,1.50
2023-05-19T13:26:55.249Z,1.30
2023-05-19T13:29:28.483Z,1.20
2023-05-19T13:32:01.193Z,1.50
2023-05-19T13:34:29.488Z,1.45
2023-05-19T13:36:59.747Z,1.40
2023-05-19T13:39:30.115Z,1.27
2023-05-19T13:42:03.003Z,1.38
2023-05-19T13:44:33.895Z,1.70
2023-05-19T13:47:05.052Z,1.45
2023-05-19T13:49:35.988Z,1.50
2023-05-19T13:52:08.259Z,1.23
2023-05-19T13:54:38.130Z,1.50
2023-05-19T13:57:12.063Z,1.50
2023-05-19T13:59:57.173Z,1.48
2023-05-19T14:02:40.046Z,1.40
2023-05-19T14:05:08.736Z,1.40
2023-05-19T14:07:39.297Z,1.50
2023-05-19T14:10:07.803Z,1.73
2023-05-19T14:12:52.808Z,1.48
2023-05-19T14:15:29.394Z,1.70
2023-05-19T14:17:59.289Z,1.63
2023-05-19T14:20:30.432Z,1.65
2023-05-19T14:22:58.935Z,1.42
2023-05-19T14:25:31.572Z,1.58
2023-05-19T14:28:02.089Z,1.45
2023-05-19T14:30:32.691Z,1.70
2023-05-19T14:33:02.862Z,1.75
2023-05-19T14:35:38.686Z,1.77
2023-05-19T14:38:09.228Z,1.98
2023-05-19T14:40:37.982Z,1.52
2023-05-19T14:43:05.722Z,1.77
2023-05-19T14:45:33.823Z,1.35
2023-05-19T14:48:01.799Z,1.95
2023-05-19T14:50:34.807Z,1.60
2023-05-19T14:53:02.712Z,1.63
2023-05-19T14:55:33.496Z,1.77
2023-05-19T14:58:01.416Z,1.45
2023-05-19T15:00:29.190Z,1.70
2023-05-19T15:02:59.470Z,1.70
2023-05-19T15:05:27.353Z,1.70
2023-05-19T15:07:55.130Z,2.00
2023-05-19T15:10:25.317Z,1.83
2023-05-19T15:12:53.721Z,1.92
2023-05-19T15:15:21.551Z,1.70
2023-05-19T15:17:49.459Z,2.00
2023-05-19T15:20:17.961Z,2.15
2023-05-19T15:22:46.153Z,1.50
2023-05-19T15:25:14.174Z,2.20
2023-05-19T15:27:45.333Z,1.83
2023-05-19T15:30:14.698Z,1.77
2023-05-19T15:32:46.081Z,1.92
2023-05-19T15:35:14.162Z,1.70
2023-05-19T15:37:42.184Z,2.15
2023-05-19T15:40:11.037Z,1.90
2023-05-19T15:42:39.094Z,1.77
2023-05-19T15:45:10.894Z,1.75
2023-05-19T15:47:38.997Z,1.80
2023-05-19T15:50:14.867Z,1.88
2023-05-19T15:52:43.176Z,1.90
2023-05-19T15:55:11.252Z,1.95
2023-05-19T15:57:39.464Z,1.90
2023-05-19T16:00:08.150Z,1.67
2023-05-19T16:02:36.270Z,2.25
2023-05-19T16:05:04.361Z,2.00
2023-05-19T16:07:32.191Z,2.22
2023-05-19T16:09:59.961Z,2.00
2023-05-19T16:12:28.022Z,2.28
2023-05-19T16:14:55.654Z,1.90
2023-05-19T16:17:23.277Z,1.90
2023-05-19T16:19:50.939Z,2.00
2023-05-19T16:22:18.781Z,2.00
2023-05-19T16:24:46.467Z,2.05
2023-05-19T16:27:14.021Z,2.17
2023-05-19T16:29:41.784Z,2.00
2023-05-19T16:32:09.363Z,1.95
2023-05-19T16:34:36.952Z,2.15
2023-05-19T16:37:04.847Z,2.08
2023-05-19T16:39:32.932Z,2.20
2023-05-19T16:42:00.689Z,1.98
2023-05-19T16:44:28.303Z,2.33
2023-05-19T16:46:55.943Z,2.03
2023-05-19T16:49:23.503Z,2.10
2023-05-19T16:51:53.042Z,1.92
2023-05-19T16:54:21.278Z,2.10
2023-05-19T16:56:50.088Z,2.63
2023-05-19T16:59:17.646Z,1.80
2023-05-19T17:01:45.263Z,2.05
2023-05-19T17:04:13.248Z,2.35
2023-05-19T17:06:40.941Z,2.28
2023-05-19T17:09:08.487Z,1.90
2023-05-19T17:11:42.249Z,1.77
2023-05-19T17:14:10.029Z,2.10
2023-05-19T17:16:57.968Z,2.25
2023-05-19T17:19:25.405Z,2.33
2023-05-19T17:21:56.272Z,2.08
2023-05-19T17:24:28.878Z,2.10
2023-05-19T17:26:58.660Z,2.17
2023-05-19T17:29:29.463Z,2.05
2023-05-19T17:31:59.414Z,2.22
2023-05-19T17:34:29.324Z,2.00
2023-05-19T17:36:59.346Z,1.77
2023-05-19T17:39:26.867Z,1.95
2023-05-19T17:41:54.612Z,1.83
2023-05-19T17:44:24.808Z,1.90
2023-05-19T17:46:52.428Z,2.08
2023-05-19T17:49:22.955Z,2.08
2023-05-19T17:51:51.005Z,1.90
2023-05-19T17:54:21.337Z,1.95
2023-05-19T17:56:54.769Z,2.20
2023-05-19T17:59:23.464Z,2.00
2023-05-19T18:01:51.789Z,2.00
2023-05-19T18:04:19.998Z,1.83
2023-05-19T18:06:50.024Z,1.80
2023-05-19T18:09:19.978Z,1.70
2023-05-19T18:11:49.660Z,1.95
2023-05-19T18:14:17.882Z,2.05
2023-05-19T18:16:49.680Z,1.95
2023-05-19T18:19:17.359Z,1.90
2023-05-19T18:21:47.768Z,2.03
2023-05-19T18:24:18.024Z,1.70
2023-05-19T18:26:48.100Z,1.98
2023-05-19T18:29:21.478Z,1.80
2023-05-19T18:31:49.606Z,1.60
2023-05-19T18:34:17.715Z,1.90
2023-05-19T18:36:45.629Z,2.10
2023-05-19T18:39:15.369Z,1.40
2023-05-19T18:41:43.716Z,1.83
2023-05-19T18:44:16.539Z,1.70
2023-05-19T18:46:46.713Z,1.48
2023-05-19T18:49:14.499Z,1.92
2023-05-19T18:51:42.560Z,1.90
2023-05-19T18:54:12.540Z,1.70
2023-05-19T18:56:41.406Z,1.75
2023-05-19T18:59:10.055Z,1.50
2023-05-19T19:01:41.078Z,1.95
2023-05-19T19:04:11.331Z,1.80
2023-05-19T19:06:39.029Z,1.40
2023-05-19T19:09:09.787Z,1.80
2023-05-19T19:11:40.596Z,1.55
2023-05-19T19:14:10.882Z,1.60
2023-05-19T19:16:41.336Z,1.70
2023-05-19T19:19:09.994Z,1.60
2023-05-19T19:21:40.608Z,1.70
2023-05-19T19:24:08.362Z,1.63
2023-05-19T19:26:41.564Z,1.67
2023-05-19T19:29:12.278Z,1.85
2023-05-19T19:31:39.899Z,1.60
2023-05-19T19:34:11.275Z,1.67
2023-05-19T19:36:41.373Z,1.73
2023-05-19T19:39:12.011Z,1.65
2023-05-19T19:41:40.980Z,1.80
2023-05-19T19:44:11.333Z,1.63
2023-05-19T19:46:42.468Z,1.40
2023-05-19T19:49:10.468Z,1.73
2023-05-19T19:51:38.180Z,1.50
2023-05-19T19:54:08.232Z,1.50
2023-05-19T19:56:38.497Z,1.55
2023-05-19T19:59:13.864Z,1.50
2023-05-19T20:01:44.034Z,1.67
2023-05-19T20:04:14.685Z,1.80
2023-05-19T20:06:47.810Z,1.60
2023-05-19T20:09:16.213Z,1.67
2023-05-19T20:11:43.899Z,1.63
2023-05-19T20:14:11.700Z,1.58
2023-05-19T20:16:41.796Z,1.65
2023-05-19T20:19:11.927Z,1.50
2023-05-19T20:21:39.842Z,1.40
2023-05-19T20:24:07.572Z,1.63
2023-05-19T20:26:35.441Z,1.60
2023-05-19T20:29:05.440Z,1.55
2023-05-19T20:31:35.701Z,1.65
2023-05-19T20:34:03.904Z,1.63
2023-05-19T20:36:32.000Z,1.85
2023-05-19T20:38:59.898Z,1.50
2023-05-19T20:41:27.957Z,1.35
2023-05-19T20:43:58.100Z,1.50
2023-05-19T20:46:27.121Z,1.30
2023-05-19T20:48:55.129Z,1.63
2023-05-19T20:51:27.415Z,1.75
2023-05-19T20:54:00.932Z,1.40
2023-05-19T20:56:31.074Z,1.35
2023-05-19T20:58:58.689Z,1.52
2023-05-19T21:01:27.067Z,1.38
2023-05-19T21:03:56.954Z,1.55
2023-05-19T21:06:25.485Z,1.70
2023-05-19T21:08:55.845Z,1.48
2023-05-19T21:11:23.938Z,1.40
2023-05-19T21:13:54.800Z,1.52
2023-05-19T21:16:23.107Z,1.20
2023-05-19T21:18:50.442Z,1.30
2023-05-19T21:21:18.116Z,1.27
2023-05-19T21:23:48.393Z,1.30
2023-05-19T21:26:19.079Z,1.50
2023-05-19T21:28:47.259Z,1.33
2023-05-19T21:31:17.253Z,1.50
2023-05-19T21:33:47.944Z,1.40
2023-05-19T21:36:16.715Z,1.65
2023-05-19T21:38:46.696Z,1.45
2023-05-19T21:41:19.764Z,1.40
2023-05-19T21:43:53.179Z,1.42
2023-05-19T21:46:21.134Z,1.40
2023-05-19T21:48:50.932Z,1.45
2023-05-19T21:51:18.845Z,1.20
2023-05-19T21:53:46.692Z,1.42
2023-05-19T21:56:17.046Z,1.38
2023-05-19T21:58:44.674Z,1.30
2023-05-19T22:01:13.261Z,1.50
2023-05-19T22:03:43.859Z,1.45
2023-05-19T22:06:14.074Z,1.35
2023-05-19T22:08:41.870Z,1.50
2023-05-19T22:11:09.802Z,1.25
2023-05-19T22:13:41.168Z,1.40
2023-05-19T22:16:09.236Z,1.38
2023-05-19T22:18:36.976Z,1.30
2023-05-19T22:21:08.078Z,1.38
2023-05-19T22:23:41.810Z,1.52
2023-05-19T22:26:12.595Z,1.52
2023-05-19T22:28:40.331Z,1.40
2023-05-19T22:31:08.001Z,1.25
2023-05-19T22:33:35.950Z,1.30
2023-05-19T22:36:03.959Z,1.48
2023-05-19T22:38:31.694Z,1.50
2023-05-19T22:40:59.469Z,1.17
2023-05-19T22:43:27.286Z,1.40
2023-05-19T22:45:57.286Z,1.30
2023-05-19T22:48:25.306Z,1.20
2023-05-19T22:50:55.961Z,1.30
2023-05-19T22:53:26.090Z,1.48
2023-05-19T22:55:56.179Z,1.25
2023-05-19T22:58:29.214Z,1.70
2023-05-19T23:00:57.328Z,1.50
2023-05-19T23:03:27.930Z,1.45
2023-05-19T23:05:58.601Z,1.40
2023-05-19T23:08:31.670Z,1.52
2023-05-19T23:11:02.494Z,1.27
2023-05-19T23:13:33.993Z,1.27
2023-05-19T23:16:01.684Z,1.27
2023-05-19T23:18:29.370Z,1.60
2023-05-19T23:21:00.179Z,1.00
2023-05-19T23:23:29.224Z,1.27
2023-05-19T23:25:56.993Z,1.40
2023-05-19T23:28:27.206Z,1.30
2023-05-19T23:30:55.478Z,1.30
2023-05-19T23:33:23.071Z,1.33
2023-05-19T23:35:50.896Z,1.10
2023-05-19T23:38:21.014Z,1.30
2023-05-19T23:40:48.828Z,1.20
2023-05-19T23:43:16.586Z,1.30
2023-05-19T23:45:44.290Z,1.25
2023-05-19T23:48:12.161Z,1.45
2023-05-19T23:50:39.834Z,1.33
2023-05-19T23:53:08.003Z,1.42
2023-05-19T23:55:38.850Z,1.33
2023-05-19T23:58:09.319Z,1.27
